Time;durP1;ratioP1;P1;durP2;ratioP2;P2;SDS_P1;SDS_P2;PMS_P1;PMS_P2;Temp;Humidity;BMP_temperature;BMP_pressure;BME280_temperature;BME280_humidity;BME280_pressure;Samples;Min_cycle;Max_cycle;Signal;HPM_P1;HPM_P2
2022/01/18 00:00:43;;;;;;;60.53;11.98;;;;;;;;;;5071454;28;20056;-58
2022/01/18 00:03:09;;;;;;;52.95;12.65;;;;;;;;;;5073783;28;20113;-58
2022/01/18 00:05:34;;;;;;;67.35;12.00;;;;;;;;;;5071748;28;20041;-59
2022/01/18 00:07:59;;;;;;;44.83;14.90;;;;;;;;;;5061182;28;20033;-58
2022/01/18 00:10:28;;;;;;;57.13;11.00;;;;;;;;;;5071414;28;20044;-58
2022/01/18 00:15:32;;;;;;;67.15;15.60;;;;;;;;;;5070321;28;20491;-58
2022/01/18 00:20:44;;;;;;;68.10;12.95;;;;;;;;;;5055767;28;20028;-58
2022/01/18 00:23:10;;;;;;;60.65;10.65;;;;;;;;;;5072823;28;20020;-58
2022/01/18 00:25:38;;;;;;;49.75;11.55;;;;;;;;;;5071566;28;20082;-58
2022/01/18 00:28:05;;;;;;;52.28;12.88;;;;;;;;;;5071274;28;20017;-58
2022/01/18 00:33:14;;;;;;;77.47;16.03;;;;;;;;;;5053263;28;20037;-59
2022/01/18 00:35:42;;;;;;;60.55;14.70;;;;;;;;;;5058720;28;20042;-59
2022/01/18 00:38:28;;;;;;;58.63;14.43;;;;;;;;;;5070689;28;20019;-59
2022/01/18 00:40:54;;;;;;;45.95;11.45;;;;;;;;;;5051441;28;20037;-59
2022/01/18 00:43:19;;;;;;;72.40;13.95;;;;;;;;;;5053073;28;20013;-59
2022/01/18 00:45:44;;;;;;;68.75;14.00;;;;;;;;;;5051057;28;20033;-59
2022/01/18 00:48:10;;;;;;;68.75;16.25;;;;;;;;;;5061543;28;20471;-59
2022/01/18 00:50:35;;;;;;;56.22;11.52;;;;;;;;;;5051137;28;20037;-59
2022/01/18 00:53:05;;;;;;;72.15;14.05;;;;;;;;;;5051910;28;20028;-59
2022/01/18 00:55:35;;;;;;;67.28;13.48;;;;;;;;;;5051474;28;20087;-59
2022/01/18 00:58:00;;;;;;;53.10;12.50;;;;;;;;;;5057359;28;20064;-59
2022/01/18 01:00:25;;;;;;;61.53;13.60;;;;;;;;;;5064642;28;20072;-59
2022/01/18 01:02:50;;;;;;;48.55;12.07;;;;;;;;;;5053314;28;20617;-59
2022/01/18 01:05:16;;;;;;;64.70;11.40;;;;;;;;;;5071276;28;20487;-59
2022/01/18 01:07:41;;;;;;;53.93;12.93;;;;;;;;;;5070080;28;20414;-58
2022/01/18 01:10:06;;;;;;;70.13;14.73;;;;;;;;;;5056367;28;20466;-59
2022/01/18 01:12:31;;;;;;;37.58;9.23;;;;;;;;;;5052635;28;20141;-59
2022/01/18 01:15:04;;;;;;;56.03;13.43;;;;;;;;;;5070530;28;20040;-58
2022/01/18 01:44:40;;;;;;;55.47;14.98;;;;;;;;;;5052323;28;20029;-59
2022/01/18 01:47:06;;;;;;;53.22;13.32;;;;;;;;;;5054815;28;20024;-59
2022/01/18 01:49:31;;;;;;;68.57;11.50;;;;;;;;;;5056212;28;20043;-59
2022/01/18 01:51:56;;;;;;;66.70;15.27;;;;;;;;;;5051343;28;20009;-59
2022/01/18 01:54:22;;;;;;;56.63;13.10;;;;;;;;;;5050263;28;20037;-59
2022/01/18 01:56:47;;;;;;;66.00;11.53;;;;;;;;;;5051416;28;20024;-59
2022/01/18 01:59:12;;;;;;;70.53;13.77;;;;;;;;;;5069590;28;20528;-59
2022/01/18 02:01:38;;;;;;;70.47;12.73;;;;;;;;;;5071372;28;20020;-59
2022/01/18 02:04:04;;;;;;;62.85;15.65;;;;;;;;;;5068334;28;20029;-59
2022/01/18 02:06:29;;;;;;;79.70;14.90;;;;;;;;;;5051347;28;20526;-59
2022/01/18 02:08:54;;;;;;;54.73;14.30;;;;;;;;;;5066413;28;20033;-59
2022/01/18 02:11:19;;;;;;;58.88;11.75;;;;;;;;;;5070292;28;20457;-59
2022/01/18 02:13:46;;;;;;;59.70;13.00;;;;;;;;;;5062667;28;20368;-59
2022/01/18 02:16:18;;;;;;;71.10;12.15;;;;;;;;;;5071379;28;21006;-59
2022/01/18 02:21:46;;;;;;;67.80;15.00;;;;;;;;;;5051301;28;20051;-58
2022/01/18 02:24:11;;;;;;;68.53;13.60;;;;;;;;;;5050121;28;20033;-59
2022/01/18 02:26:37;;;;;;;55.25;13.32;;;;;;;;;;5059734;28;20031;-59
2022/01/18 02:29:03;;;;;;;82.35;14.32;;;;;;;;;;5068702;28;20542;-58
2022/01/18 02:31:28;;;;;;;44.63;10.93;;;;;;;;;;5070289;28;20099;-59
2022/01/18 02:33:53;;;;;;;62.05;15.07;;;;;;;;;;5069408;28;20059;-59
2022/01/18 02:36:19;;;;;;;68.93;15.33;;;;;;;;;;5070838;28;20017;-59
2022/01/18 02:38:44;;;;;;;56.25;11.30;;;;;;;;;;5053921;28;20447;-59
2022/01/18 02:41:09;;;;;;;65.03;13.55;;;;;;;;;;5058922;28;20027;-58
2022/01/18 02:43:46;;;;;;;55.53;12.77;;;;;;;;;;5049765;28;20112;-58
2022/01/18 02:46:11;;;;;;;59.28;11.60;;;;;;;;;;5051197;28;20423;-59
2022/01/18 02:48:37;;;;;;;73.53;15.47;;;;;;;;;;5063740;28;20032;-59
2022/01/18 02:51:02;;;;;;;73.18;15.02;;;;;;;;;;5070597;28;21123;-58
2022/01/18 02:53:27;;;;;;;55.05;11.45;;;;;;;;;;5059413;28;20464;-59
2022/01/18 02:55:53;;;;;;;54.10;12.05;;;;;;;;;;5048903;28;20065;-59
2022/01/18 02:58:31;;;;;;;55.85;13.40;;;;;;;;;;5061145;28;20021;-58
2022/01/18 03:03:25;;;;;;;63.42;14.27;;;;;;;;;;5070289;28;20024;-59
2022/01/18 03:05:50;;;;;;;35.13;9.73;;;;;;;;;;5068747;28;20488;-59
2022/01/18 03:08:17;;;;;;;68.82;13.18;;;;;;;;;;5060189;28;20040;-58
2022/01/18 03:10:42;;;;;;;84.78;13.73;;;;;;;;;;5068734;28;20045;-58
2022/01/18 03:13:07;;;;;;;60.35;14.57;;;;;;;;;;5069859;28;20533;-59
2022/01/18 03:15:33;;;;;;;75.57;15.73;;;;;;;;;;5068624;28;20109;-58
2022/01/18 03:18:00;;;;;;;60.10;11.85;;;;;;;;;;5062467;28;20040;-59
2022/01/18 03:20:25;;;;;;;57.50;12.95;;;;;;;;;;5060707;28;20128;-58
2022/01/18 03:22:51;;;;;;;65.13;13.30;;;;;;;;;;5068352;28;20104;-58
2022/01/18 03:25:28;;;;;;;79.25;12.93;;;;;;;;;;5068958;28;20101;-57
2022/01/18 03:28:04;;;;;;;65.13;10.73;;;;;;;;;;5062605;28;20163;-58
2022/01/18 03:30:29;;;;;;;81.28;13.40;;;;;;;;;;5048780;28;20052;-58
2022/01/18 03:32:54;;;;;;;66.95;13.52;;;;;;;;;;5049935;28;20133;-58
2022/01/18 03:35:21;;;;;;;53.27;12.50;;;;;;;;;;5048510;28;20036;-58
2022/01/18 03:37:46;;;;;;;64.78;13.73;;;;;;;;;;5049398;28;20526;-58
2022/01/18 03:40:12;;;;;;;67.18;11.63;;;;;;;;;;5048832;28;20029;-58
2022/01/18 03:42:46;;;;;;;50.47;12.48;;;;;;;;;;5069117;28;20388;-58
2022/01/18 03:45:13;;;;;;;61.50;14.40;;;;;;;;;;5069064;28;20033;-58
2022/01/18 03:47:39;;;;;;;68.57;13.07;;;;;;;;;;5064722;28;20108;-58
2022/01/18 03:50:05;;;;;;;75.95;16.52;;;;;;;;;;5048388;28;20128;-58
2022/01/18 03:52:30;;;;;;;49.67;12.32;;;;;;;;;;5062417;28;20031;-58
2022/01/18 03:54:56;;;;;;;54.70;14.40;;;;;;;;;;5068309;28;20123;-58
2022/01/18 03:57:22;;;;;;;49.13;12.05;;;;;;;;;;5067651;28;20017;-58
2022/01/18 03:59:47;;;;;;;64.18;15.27;;;;;;;;;;5048629;28;20444;-58
2022/01/18 04:02:13;;;;;;;49.07;14.37;;;;;;;;;;5068431;28;20048;-58
2022/01/18 04:04:39;;;;;;;45.67;12.05;;;;;;;;;;5066344;28;21055;-58
2022/01/18 04:07:05;;;;;;;51.92;12.35;;;;;;;;;;5069750;28;20032;-58
2022/01/18 04:09:30;;;;;;;53.80;12.10;;;;;;;;;;5048814;28;20503;-59
2022/01/18 04:11:56;;;;;;;65.07;14.07;;;;;;;;;;5053303;28;20352;-58
2022/01/18 04:14:21;;;;;;;59.33;12.13;;;;;;;;;;5068486;28;20029;-59
2022/01/18 04:17:06;;;;;;;77.57;17.17;;;;;;;;;;5069711;28;20052;-58
2022/01/18 04:27:31;;;;;;;53.85;14.63;;;;;;;;;;5036188;28;20105;-58
2022/01/18 04:29:56;;;;;;;58.63;15.68;;;;;;;;;;5071534;28;20564;-58
2022/01/18 04:32:21;;;;;;;54.13;13.40;;;;;;;;;;5070491;28;20430;-58
2022/01/18 04:34:47;;;;;;;55.58;14.48;;;;;;;;;;5051367;28;20492;-58
2022/01/18 04:37:12;;;;;;;52.30;11.82;;;;;;;;;;5053397;28;20025;-58
2022/01/18 04:39:40;;;;;;;60.07;14.00;;;;;;;;;;5069897;28;20071;-58
2022/01/18 04:42:17;;;;;;;51.45;10.90;;;;;;;;;;5072474;28;20751;-58
2022/01/18 04:50:10;;;;;;;69.68;15.40;;;;;;;;;;5051366;28;20037;-58
2022/01/18 04:52:35;;;;;;;67.28;13.02;;;;;;;;;;5052643;28;20021;-59
2022/01/18 04:55:02;;;;;;;75.40;18.03;;;;;;;;;;5051101;28;20064;-58
2022/01/18 05:00:12;;;;;;;78.45;13.38;;;;;;;;;;5049165;28;20040;-58
2022/01/18 05:02:37;;;;;;;87.13;17.60;;;;;;;;;;5048204;28;20104;-59
2022/01/18 05:05:03;;;;;;;103.30;22.25;;;;;;;;;;5050823;28;20037;-58
2022/01/18 05:07:29;;;;;;;69.30;15.73;;;;;;;;;;5049812;28;20045;-58
2022/01/18 05:09:54;;;;;;;77.50;15.00;;;;;;;;;;5052178;28;20444;-58
2022/01/18 05:12:33;;;;;;;65.97;15.02;;;;;;;;;;5051625;28;20017;-59
2022/01/18 05:14:59;;;;;;;;;;;;;;;;;;5059768;28;20043;-57
2022/01/18 05:20:37;;;;;;;56.65;16.80;;;;;;;;;;5051534;28;20079;-58
2022/01/18 05:23:00;;;;;;;70.78;19.10;;;;;;;;;;5045924;28;20029;-57
2022/01/18 05:25:26;;;;;;;62.88;21.17;;;;;;;;;;5054093;28;20475;-58
2022/01/18 05:27:51;;;;;;;85.60;18.70;;;;;;;;;;5054292;28;20045;-57
2022/01/18 05:30:16;;;;;;;82.35;24.02;;;;;;;;;;5050402;28;20055;-57
2022/01/18 05:32:41;;;;;;;94.50;23.20;;;;;;;;;;5050908;28;20048;-58
2022/01/18 05:35:07;;;;;;;89.53;24.15;;;;;;;;;;5051039;28;20431;-58
2022/01/18 05:37:32;;;;;;;97.35;24.05;;;;;;;;;;5043402;28;20065;-58
2022/01/18 05:39:57;;;;;;;78.55;20.80;;;;;;;;;;5052187;28;20073;-57
2022/01/18 05:42:22;;;;;;;77.05;24.08;;;;;;;;;;5072294;28;20020;-58
2022/01/18 05:44:48;;;;;;;125.37;25.50;;;;;;;;;;5069988;28;20488;-57
2022/01/18 05:47:13;;;;;;;83.88;22.92;;;;;;;;;;5071909;28;20489;-58
2022/01/18 05:49:38;;;;;;;79.35;21.25;;;;;;;;;;5070232;28;20090;-58
2022/01/18 05:52:03;;;;;;;67.93;17.90;;;;;;;;;;5071759;28;20110;-57
2022/01/18 05:54:29;;;;;;;75.28;20.05;;;;;;;;;;5069826;28;20041;-58
2022/01/18 05:56:54;;;;;;;82.10;21.80;;;;;;;;;;5071566;28;20032;-58
2022/01/18 05:59:23;;;;;;;79.38;23.65;;;;;;;;;;5070203;28;20083;-57
2022/01/18 06:01:50;;;;;;;64.57;19.27;;;;;;;;;;5071346;28;20025;-58
2022/01/18 06:06:51;;;;;;;69.82;16.67;;;;;;;;;;5070121;28;20035;-58
2022/01/18 06:07:01;;;;;;;73.57;20.35;;;;;;;;;;5071546;28;20368;-58
2022/01/18 06:09:26;;;;;;;79.50;19.65;;;;;;;;;;5069877;28;20031;-57
2022/01/18 06:11:51;;;;;;;59.20;16.83;;;;;;;;;;5071025;28;20121;-57
2022/01/18 06:14:16;;;;;;;61.92;13.95;;;;;;;;;;5070089;28;20039;-57
2022/01/18 06:16:42;;;;;;;78.88;17.75;;;;;;;;;;5070948;28;20073;-57
2022/01/18 06:19:07;;;;;;;58.97;17.25;;;;;;;;;;5070113;28;20553;-57
2022/01/18 06:21:32;;;;;;;64.83;16.23;;;;;;;;;;5071600;28;20101;-57
2022/01/18 06:23:57;;;;;;;56.07;17.07;;;;;;;;;;5069368;28;20450;-57
2022/01/18 06:26:22;;;;;;;61.70;22.27;;;;;;;;;;5059468;28;20754;-57
2022/01/18 06:28:47;;;;;;;66.63;19.77;;;;;;;;;;5049586;28;20092;-57
2022/01/18 06:31:13;;;;;;;44.67;14.02;;;;;;;;;;5050640;28;20080;-57
2022/01/18 06:33:38;;;;;;;59.78;16.75;;;;;;;;;;5049356;28;20090;-57
2022/01/18 06:36:03;;;;;;;48.87;14.97;;;;;;;;;;5051062;28;20516;-58
2022/01/18 06:38:28;;;;;;;47.67;15.57;;;;;;;;;;5051163;28;20028;-57
2022/01/18 06:40:53;;;;;;;39.45;12.15;;;;;;;;;;5048888;28;20029;-58
2022/01/18 06:43:19;;;;;;;64.10;15.60;;;;;;;;;;5050400;28;20472;-58
2022/01/18 06:45:45;;;;;;;53.22;16.05;;;;;;;;;;5048500;28;20029;-57
2022/01/18 06:48:10;;;;;;;57.95;15.43;;;;;;;;;;5050023;28;20051;-57
2022/01/18 06:50:35;;;;;;;31.10;12.67;;;;;;;;;;5048162;28;20033;-57
2022/01/18 06:53:00;;;;;;;41.92;15.15;;;;;;;;;;5050413;28;20047;-58
2022/01/18 06:55:26;;;;;;;38.72;12.70;;;;;;;;;;5048344;28;20119;-58
2022/01/18 06:57:51;;;;;;;40.65;13.05;;;;;;;;;;5050257;28;20016;-58
2022/01/18 07:00:17;;;;;;;32.28;14.73;;;;;;;;;;5048629;28;20542;-58
2022/01/18 07:02:43;;;;;;;27.38;13.65;;;;;;;;;;5049343;28;20150;-57
2022/01/18 07:05:08;;;;;;;34.55;12.45;;;;;;;;;;5048751;28;20115;-57
2022/01/18 07:07:33;;;;;;;38.00;14.47;;;;;;;;;;5050134;28;20021;-57
2022/01/18 07:09:58;;;;;;;55.15;18.08;;;;;;;;;;5048060;28;20056;-56
2022/01/18 07:12:25;;;;;;;41.75;16.55;;;;;;;;;;5049718;28;20412;-56
2022/01/18 07:14:50;;;;;;;38.92;14.65;;;;;;;;;;5047930;28;20292;-56
2022/01/18 07:17:15;;;;;;;30.95;10.50;;;;;;;;;;5049557;28;20053;-56
2022/01/18 07:19:40;;;;;;;49.08;13.18;;;;;;;;;;5048999;28;20090;-56
2022/01/18 07:22:06;;;;;;;47.70;12.57;;;;;;;;;;5049497;28;20013;-56
2022/01/18 07:24:43;;;;;;;33.72;10.70;;;;;;;;;;5048683;28;20060;-56
2022/01/18 07:27:09;;;;;;;29.58;10.82;;;;;;;;;;5050513;28;20017;-56
2022/01/18 07:29:35;;;;;;;31.27;11.32;;;;;;;;;;5048888;28;20377;-56
2022/01/18 07:32:01;;;;;;;50.35;14.32;;;;;;;;;;5049742;28;20067;-56
2022/01/18 07:34:26;;;;;;;43.97;12.10;;;;;;;;;;5048685;28;20057;-57
2022/01/18 07:36:52;;;;;;;48.33;10.85;;;;;;;;;;5049785;28;20108;-57
2022/01/18 07:39:17;;;;;;;47.15;15.95;;;;;;;;;;5046705;28;20033;-56
2022/01/18 07:41:43;;;;;;;46.33;14.48;;;;;;;;;;5049179;28;20043;-57
2022/01/18 07:44:08;;;;;;;41.33;12.95;;;;;;;;;;5048361;28;20033;-57
2022/01/18 07:46:33;;;;;;;43.43;14.43;;;;;;;;;;5049810;28;20017;-57
2022/01/18 07:48:58;;;;;;;39.63;12.68;;;;;;;;;;5048872;28;20463;-57
2022/01/18 07:51:23;;;;;;;44.50;11.73;;;;;;;;;;5049991;28;20041;-57
2022/01/18 07:53:48;;;;;;;46.83;12.10;;;;;;;;;;5048179;28;20060;-57
2022/01/18 07:56:14;;;;;;;35.15;10.77;;;;;;;;;;5050085;28;20463;-56
2022/01/18 07:58:39;;;;;;;55.23;15.63;;;;;;;;;;5048656;28;20027;-57
2022/01/18 08:01:04;;;;;;;52.92;16.30;;;;;;;;;;5049843;28;20953;-57
2022/01/18 08:03:29;;;;;;;44.17;12.27;;;;;;;;;;5053147;28;20029;-57
2022/01/18 08:05:55;;;;;;;39.15;12.43;;;;;;;;;;5052482;28;20041;-56
2022/01/18 08:08:20;;;;;;;39.90;13.35;;;;;;;;;;5053814;28;20079;-55
2022/01/18 08:10:45;;;;;;;38.60;11.07;;;;;;;;;;5052129;28;20338;-55
2022/01/18 08:13:10;;;;;;;38.97;12.88;;;;;;;;;;5048825;28;20495;-56
2022/01/18 08:15:39;;;;;;;30.87;10.33;;;;;;;;;;5050707;28;20484;-56
2022/01/18 08:18:06;;;;;;;39.03;14.27;;;;;;;;;;5053725;28;20451;-55
2022/01/18 08:20:31;;;;;;;29.55;8.43;;;;;;;;;;5051950;28;20029;-56
2022/01/18 08:22:56;;;;;;;37.00;14.18;;;;;;;;;;5052944;28;20032;-56
2022/01/18 08:25:23;;;;;;;31.10;11.07;;;;;;;;;;5051601;28;20102;-56
2022/01/18 08:27:48;;;;;;;27.33;9.73;;;;;;;;;;5053243;28;20074;-55
2022/01/18 08:30:16;;;;;;;23.98;8.23;;;;;;;;;;5051273;28;20028;-56
2022/01/18 08:32:42;;;;;;;15.95;7.65;;;;;;;;;;5052895;28;20057;-56
2022/01/18 08:35:08;;;;;;;25.67;9.98;;;;;;;;;;5052096;28;20488;-55
2022/01/18 08:37:33;;;;;;;21.35;6.55;;;;;;;;;;5053157;28;20412;-56
2022/01/18 08:39:58;;;;;;;22.00;8.93;;;;;;;;;;5051452;28;20029;-56
2022/01/18 08:42:23;;;;;;;21.13;9.23;;;;;;;;;;5052923;28;20427;-56
2022/01/18 08:44:48;;;;;;;21.77;8.45;;;;;;;;;;5051043;28;20039;-56
2022/01/18 08:47:14;;;;;;;17.25;9.40;;;;;;;;;;5053071;28;20060;-55
2022/01/18 08:49:40;;;;;;;25.35;11.32;;;;;;;;;;5051283;28;20071;-55
2022/01/18 08:52:05;;;;;;;26.95;10.27;;;;;;;;;;5052534;28;20013;-56
2022/01/18 08:54:31;;;;;;;25.27;8.00;;;;;;;;;;5051584;28;20102;-56
2022/01/18 08:56:56;;;;;;;27.63;10.95;;;;;;;;;;5052340;28;20024;-56
2022/01/18 08:59:21;;;;;;;27.48;11.20;;;;;;;;;;5051291;28;20033;-56
2022/01/18 09:01:46;;;;;;;23.23;10.45;;;;;;;;;;5052116;28;20013;-56
2022/01/18 09:04:12;;;;;;;38.42;8.88;;;;;;;;;;5051086;28;20520;-55
2022/01/18 09:06:38;;;;;;;43.88;9.93;;;;;;;;;;5051854;28;20082;-55
2022/01/18 09:09:05;;;;;;;36.75;11.30;;;;;;;;;;5050734;28;20131;-56
2022/01/18 09:11:31;;;;;;;35.60;13.05;;;;;;;;;;5052258;28;20032;-55
2022/01/18 09:13:56;;;;;;;22.05;9.15;;;;;;;;;;5050526;28;20068;-56
2022/01/18 09:16:21;;;;;;;32.20;11.17;;;;;;;;;;5052272;28;20059;-55
2022/01/18 09:18:47;;;;;;;37.40;13.17;;;;;;;;;;5050720;28;20472;-55
2022/01/18 09:21:12;;;;;;;30.38;9.75;;;;;;;;;;5052811;28;20013;-56
2022/01/18 09:23:39;;;;;;;24.20;10.52;;;;;;;;;;5050645;28;20155;-56
2022/01/18 09:26:04;;;;;;;16.30;8.45;;;;;;;;;;5052045;28;20522;-55
2022/01/18 09:28:29;;;;;;;17.92;8.23;;;;;;;;;;5052436;28;20068;-55
2022/01/18 09:30:55;;;;;;;24.53;10.43;;;;;;;;;;5049763;28;20060;-55
2022/01/18 09:33:20;;;;;;;27.13;8.47;;;;;;;;;;5052498;28;20040;-55
2022/01/18 09:35:45;;;;;;;18.37;7.93;;;;;;;;;;5050655;28;21005;-55
2022/01/18 09:38:10;;;;;;;15.97;8.33;;;;;;;;;;5051883;28;20430;-55
2022/01/18 09:40:38;;;;;;;17.67;7.07;;;;;;;;;;5050206;28;20560;-55
2022/01/18 09:43:09;;;;;;;20.23;6.95;;;;;;;;;;5052426;28;20436;-55
2022/01/18 09:45:34;;;;;;;16.67;7.47;;;;;;;;;;5050025;28;20526;-55
2022/01/18 09:48:00;;;;;;;15.10;7.27;;;;;;;;;;5051147;28;20029;-57
2022/01/18 09:50:29;;;;;;;14.32;5.57;;;;;;;;;;5047234;28;20528;-56
2022/01/18 09:52:56;;;;;;;11.73;6.28;;;;;;;;;;5050885;28;20417;-55
2022/01/18 09:55:23;;;;;;;15.63;6.30;;;;;;;;;;5050044;28;20052;-55
2022/01/18 09:57:49;;;;;;;17.15;8.70;;;;;;;;;;5051262;28;20024;-56
2022/01/18 10:00:15;;;;;;;8.55;5.68;;;;;;;;;;5050032;28;20033;-56
2022/01/18 10:02:40;;;;;;;11.90;6.43;;;;;;;;;;5048506;28;20043;-56
2022/01/18 10:05:17;;;;;;;11.20;5.28;;;;;;;;;;5049548;28;20029;-56
2022/01/18 10:07:43;;;;;;;10.35;5.20;;;;;;;;;;5050876;28;20028;-56
2022/01/18 10:10:08;;;;;;;16.90;7.50;;;;;;;;;;5050153;28;20399;-56
2022/01/18 10:12:33;;;;;;;11.80;6.07;;;;;;;;;;5050946;28;20440;-56
2022/01/18 10:15:00;;;;;;;13.67;6.17;;;;;;;;;;5049249;28;20407;-56
2022/01/18 10:17:35;;;;;;;11.88;6.80;;;;;;;;;;5051306;28;20066;-56
2022/01/18 10:20:03;;;;;;;8.50;5.72;;;;;;;;;;5049685;28;20369;-56
2022/01/18 10:22:34;;;;;;;10.73;6.57;;;;;;;;;;5050637;28;20056;-56
2022/01/18 10:25:12;;;;;;;8.57;5.43;;;;;;;;;;5048781;28;20483;-56
2022/01/18 10:27:37;;;;;;;24.33;8.93;;;;;;;;;;5051094;28;20012;-56
2022/01/18 10:30:05;;;;;;;11.00;5.07;;;;;;;;;;5049344;28;20044;-56
2022/01/18 10:32:37;;;;;;;18.10;7.30;;;;;;;;;;5050583;28;20048;-56
2022/01/18 10:35:05;;;;;;;14.13;9.07;;;;;;;;;;5049433;28;20090;-56
2022/01/18 10:37:34;;;;;;;16.83;7.87;;;;;;;;;;5050744;28;20013;-56
2022/01/18 10:39:59;;;;;;;;;;;;;;;;;;5049732;28;21049;-56
2022/01/18 10:42:29;;;;;;;9.75;5.85;;;;;;;;;;5051002;28;20490;-56
2022/01/18 10:45:15;;;;;;;14.90;7.40;;;;;;;;;;5048780;28;20401;-56
2022/01/18 10:47:51;;;;;;;14.40;7.43;;;;;;;;;;5050095;28;20040;-55
2022/01/18 10:50:17;;;;;;;13.35;6.45;;;;;;;;;;5048904;28;20128;-55
2022/01/18 10:52:42;;;;;;;19.70;7.20;;;;;;;;;;5050126;28;20413;-55
2022/01/18 10:55:13;;;;;;;15.00;7.22;;;;;;;;;;5049181;28;20037;-55
2022/01/18 10:57:39;;;;;;;9.68;6.30;;;;;;;;;;5046840;28;20376;-55
2022/01/18 11:00:09;;;;;;;14.18;6.55;;;;;;;;;;5048474;28;20037;-56
2022/01/18 11:02:41;;;;;;;16.35;7.65;;;;;;;;;;5050139;28;20021;-55
2022/01/18 11:05:25;;;;;;;13.10;6.72;;;;;;;;;;5048758;28;20033;-55
2022/01/18 11:07:51;;;;;;;21.10;7.68;;;;;;;;;;5051420;28;20025;-56
2022/01/18 11:10:17;;;;;;;11.57;6.55;;;;;;;;;;5056465;28;20044;-55
2022/01/18 11:12:47;;;;;;;13.18;6.82;;;;;;;;;;5067253;28;20032;-55
2022/01/18 11:15:18;;;;;;;21.40;7.18;;;;;;;;;;5049099;28;20033;-55
2022/01/18 11:17:50;;;;;;;18.45;7.28;;;;;;;;;;5050435;28;20032;-55
2022/01/18 11:20:15;;;;;;;20.80;7.60;;;;;;;;;;5048707;28;20025;-55
2022/01/18 11:22:40;;;;;;;23.52;10.05;;;;;;;;;;5047265;28;20098;-55
2022/01/18 11:25:06;;;;;;;17.70;9.07;;;;;;;;;;5048247;28;20037;-55
2022/01/18 11:27:35;;;;;;;24.85;10.73;;;;;;;;;;5067967;28;20020;-55
2022/01/18 11:30:00;;;;;;;18.05;7.03;;;;;;;;;;5067458;28;20044;-55
2022/01/18 11:32:26;;;;;;;15.00;8.63;;;;;;;;;;5064043;28;20500;-55
2022/01/18 11:34:56;;;;;;;21.40;9.93;;;;;;;;;;5047745;28;20033;-55
2022/01/18 11:37:27;;;;;;;22.52;9.95;;;;;;;;;;5051488;28;20025;-55
2022/01/18 11:39:56;;;;;;;20.77;8.95;;;;;;;;;;5035372;28;20033;-55
2022/01/18 11:42:21;;;;;;;20.52;7.72;;;;;;;;;;5055459;28;20032;-55
2022/01/18 11:44:47;;;;;;;24.93;9.10;;;;;;;;;;5052332;28;20532;-55
2022/01/18 11:47:26;;;;;;;22.80;11.18;;;;;;;;;;5053506;28;20478;-55
2022/01/18 11:49:52;;;;;;;20.33;11.20;;;;;;;;;;5057267;28;20033;-55
2022/01/18 11:52:29;;;;;;;22.48;10.68;;;;;;;;;;5053699;28;20020;-55
2022/01/18 11:54:59;;;;;;;26.42;8.43;;;;;;;;;;5051953;28;20040;-55
2022/01/18 11:57:24;;;;;;;30.98;11.18;;;;;;;;;;5053215;28;20480;-55
2022/01/18 11:59:49;;;;;;;31.98;10.57;;;;;;;;;;5052172;28;20546;-55
2022/01/18 12:02:33;;;;;;;25.80;10.25;;;;;;;;;;5053651;28;20020;-55
2022/01/18 12:05:05;;;;;;;22.10;11.25;;;;;;;;;;5051949;28;20029;-55
2022/01/18 12:07:33;;;;;;;33.70;9.82;;;;;;;;;;5053438;28;20021;-55
2022/01/18 12:09:59;;;;;;;21.60;10.00;;;;;;;;;;5052158;28;20496;-55
2022/01/18 12:12:40;;;;;;;23.27;9.80;;;;;;;;;;5053051;28;20510;-55
2022/01/18 12:15:23;;;;;;;29.67;11.77;;;;;;;;;;5051891;28;20060;-55
2022/01/18 12:17:51;;;;;;;31.38;12.98;;;;;;;;;;5053394;28;20033;-55
2022/01/18 12:20:32;;;;;;;82.53;18.60;;;;;;;;;;5051566;28;20518;-55
2022/01/18 12:23:03;;;;;;;31.42;10.40;;;;;;;;;;5053024;28;20072;-55
2022/01/18 12:25:30;;;;;;;29.25;14.02;;;;;;;;;;5051720;28;20063;-55
2022/01/18 12:27:56;;;;;;;29.48;14.15;;;;;;;;;;5052560;28;20025;-55
2022/01/18 12:31:05;;;;;;;31.65;11.40;;;;;;;;;;5051485;28;20044;-55
2022/01/18 12:33:14;;;;;;;25.70;10.45;;;;;;;;;;5049061;28;20060;-55
2022/01/18 12:35:40;;;;;;;19.63;11.10;;;;;;;;;;5048899;28;20037;-55
2022/01/18 12:38:10;;;;;;;28.97;13.40;;;;;;;;;;5052215;28;20017;-55
2022/01/18 12:40:42;;;;;;;15.85;9.10;;;;;;;;;;5051241;28;20067;-55
2022/01/18 12:45:34;;;;;;;28.05;11.20;;;;;;;;;;5051354;28;20131;-55
2022/01/18 12:48:00;;;;;;;34.85;9.40;;;;;;;;;;5052153;28;20040;-55
2022/01/18 12:50:25;;;;;;;35.55;11.90;;;;;;;;;;5047283;28;20041;-55
2022/01/18 12:52:54;;;;;;;22.70;10.45;;;;;;;;;;5051432;28;20095;-55
2022/01/18 12:55:29;;;;;;;37.63;13.05;;;;;;;;;;5030903;28;20079;-55
2022/01/18 12:58:03;;;;;;;36.05;12.50;;;;;;;;;;5032055;28;20056;-55
2022/01/18 13:00:29;;;;;;;41.78;13.05;;;;;;;;;;5031173;28;20040;-54
2022/01/18 13:03:00;;;;;;;24.88;10.43;;;;;;;;;;5032314;28;20412;-55
2022/01/18 13:05:52;;;;;;;35.55;16.58;;;;;;;;;;5030665;28;20508;-55
2022/01/18 13:08:18;;;;;;;40.80;15.43;;;;;;;;;;5031471;28;20107;-55
2022/01/18 13:10:45;;;;;;;33.70;14.35;;;;;;;;;;5030532;28;20068;-54
2022/01/18 13:13:13;;;;;;;36.13;14.55;;;;;;;;;;5032083;28;20036;-55
2022/01/18 13:16:04;;;;;;;28.20;13.07;;;;;;;;;;5030577;28;20037;-55
2022/01/18 13:24:43;;;;;;;40.40;13.05;;;;;;;;;;5031030;28;20063;-55
2022/01/18 13:27:15;;;;;;;38.92;14.23;;;;;;;;;;5049164;28;20161;-54
2022/01/18 13:29:40;;;;;;;30.08;12.23;;;;;;;;;;5050403;28;20407;-55
2022/01/18 13:32:15;;;;;;;47.10;13.02;;;;;;;;;;5051539;28;20052;-55
2022/01/18 13:34:41;;;;;;;18.55;9.85;;;;;;;;;;5050046;28;20110;-55
2022/01/18 13:37:08;;;;;;;22.08;11.57;;;;;;;;;;5051797;28;20328;-55
2022/01/18 13:39:36;;;;;;;17.90;10.88;;;;;;;;;;5050214;28;20029;-55
2022/01/18 13:42:02;;;;;;;31.15;12.07;;;;;;;;;;5051591;28;20075;-55
2022/01/18 13:44:28;;;;;;;25.33;12.40;;;;;;;;;;5050378;28;20040;-55
2022/01/18 13:46:54;;;;;;;28.15;14.25;;;;;;;;;;5050581;28;20506;-55
2022/01/18 13:49:24;;;;;;;36.40;14.23;;;;;;;;;;5046522;28;20425;-55
2022/01/18 13:51:59;;;;;;;29.65;11.60;;;;;;;;;;5051125;28;20170;-55
2022/01/18 13:54:28;;;;;;;29.08;13.35;;;;;;;;;;5049961;28;20161;-55
2022/01/18 13:56:53;;;;;;;36.25;13.95;;;;;;;;;;5050729;28;20432;-55
2022/01/18 13:59:24;;;;;;;37.60;15.23;;;;;;;;;;5049926;28;20108;-55
2022/01/18 14:01:49;;;;;;;35.42;14.45;;;;;;;;;;5051046;28;20021;-55
2022/01/18 14:04:19;;;;;;;36.80;12.30;;;;;;;;;;5049585;28;20147;-55
2022/01/18 14:06:44;;;;;;;29.77;12.13;;;;;;;;;;5051113;28;20047;-55
2022/01/18 14:09:10;;;;;;;27.02;11.10;;;;;;;;;;5049786;28;20033;-55
2022/01/18 14:11:36;;;;;;;43.40;16.25;;;;;;;;;;5050676;28;20016;-55
2022/01/18 14:14:17;;;;;;;40.60;16.63;;;;;;;;;;5049959;28;20033;-55
2022/01/18 14:16:50;;;;;;;44.50;17.20;;;;;;;;;;5050745;28;20031;-55
2022/01/18 14:19:24;;;;;;;31.75;14.90;;;;;;;;;;5049248;28;20033;-58
2022/01/18 14:21:50;;;;;;;25.50;12.77;;;;;;;;;;5050725;28;20021;-59
2022/01/18 14:24:15;;;;;;;32.90;16.05;;;;;;;;;;5049656;28;20025;-56
2022/01/18 14:26:52;;;;;;;32.97;16.90;;;;;;;;;;5050531;28;20032;-55
2022/01/18 14:29:21;;;;;;;34.25;16.23;;;;;;;;;;5049379;28;20479;-55
2022/01/18 14:31:56;;;;;;;41.15;16.17;;;;;;;;;;5050211;28;20045;-55
2022/01/18 14:34:31;;;;;;;33.22;17.23;;;;;;;;;;5049099;28;20037;-55
2022/01/18 14:36:57;;;;;;;43.63;19.65;;;;;;;;;;5050314;28;20075;-55
2022/01/18 14:39:22;;;;;;;45.40;26.08;;;;;;;;;;5049229;28;20033;-55
2022/01/18 14:41:54;;;;;;;40.42;22.95;;;;;;;;;;5050304;28;20013;-55
2022/01/18 14:44:35;;;;;;;52.38;21.23;;;;;;;;;;5049272;28;20121;-55
2022/01/18 14:49:44;;;;;;;49.70;23.33;;;;;;;;;;5048893;28;20148;-55
2022/01/18 14:52:09;;;;;;;38.10;22.33;;;;;;;;;;5050565;28;20621;-55
2022/01/18 14:54:34;;;;;;;45.73;22.00;;;;;;;;;;5048530;28;20444;-55
2022/01/18 14:57:00;;;;;;;45.08;22.35;;;;;;;;;;5050235;28;20365;-55
2022/01/18 14:59:25;;;;;;;50.97;18.73;;;;;;;;;;5048936;28;20033;-55
2022/01/18 15:01:52;;;;;;;45.17;20.95;;;;;;;;;;5050145;28;20419;-55
2022/01/18 15:04:17;;;;;;;50.70;21.23;;;;;;;;;;5048931;28;20045;-55
2022/01/18 15:06:42;;;;;;;43.40;17.10;;;;;;;;;;5049807;28;20028;-55
2022/01/18 15:09:07;;;;;;;37.53;18.38;;;;;;;;;;5048869;28;20037;-55
2022/01/18 15:11:36;;;;;;;51.83;19.77;;;;;;;;;;5046520;28;20496;-54
2022/01/18 15:14:01;;;;;;;;;;;;;;;;;;5046664;28;20115;-55
2022/01/18 15:16:27;;;;;;;37.97;19.35;;;;;;;;;;5049986;28;20003;-56
2022/01/18 15:18:53;;;;;;;50.72;20.70;;;;;;;;;;5048299;28;20509;-55
2022/01/18 15:21:18;;;;;;;55.50;23.88;;;;;;;;;;5049959;28;20021;-55
2022/01/18 15:23:43;;;;;;;41.83;19.13;;;;;;;;;;5048282;28;20044;-55
2022/01/18 15:26:08;;;;;;;35.88;15.80;;;;;;;;;;5049479;28;20817;-55
2022/01/18 15:28:33;;;;;;;49.20;17.02;;;;;;;;;;5048379;28;20548;-55
2022/01/18 15:30:58;;;;;;;59.50;21.75;;;;;;;;;;5049130;28;20049;-55
2022/01/18 15:33:24;;;;;;;34.07;15.43;;;;;;;;;;5048487;28;20029;-55